Terminal Aerodrome Forecast
Issued by NWS Tulsa, OK

Home | Current Version | Previous Version | Text Only | Print | Product List | Glossary On
Versions: 1 2 3 4 5 6 7 8 9 10 11
000
FTUS44 KTSA 012300
TAFFSM
TAF
KFSM 012338Z 0200/0224 18007KT P6SM SKC
     FM020300 12004KT P6SM SCT250
     FM020600 09004KT P6SM BKN250
     FM020900 07003KT 5SM BR OVC250
     FM021500 13010KT P6SM OVC025
     FM021800 18011KT P6SM BKN250 PROB30 0221/0224 4SM -TSRA
      BKN040CB=

USA.gov is the U.S. government's official web portal to all federal, state and local government web resources and services.